sensor_id;sensor_type;location;lat;lon;timestamp;temperature;humidity
20795;DHT22;28087;-33.874;151.240;2022-12-07T00:00:08;23.40;99.90
20795;DHT22;28087;-33.874;151.240;2022-12-07T00:05:23;23.10;99.90
20795;DHT22;28087;-33.874;151.240;2022-12-07T00:10:35;22.90;99.90
20795;DHT22;28087;-33.874;151.240;2022-12-07T00:13:13;22.80;99.90
20795;DHT22;28087;-33.874;151.240;2022-12-07T00:15:49;22.80;99.90
20795;DHT22;28087;-33.874;151.240;2022-12-07T00:18:25;22.80;99.90
20795;DHT22;28087;-33.874;151.240;2022-12-07T00:21:03;22.90;99.90
20795;DHT22;28087;-33.874;151.240;2022-12-07T00:23:40;23.00;99.90
20795;DHT22;28087;-33.874;151.240;2022-12-07T00:26:18;23.10;99.90
20795;DHT22;28087;-33.874;151.240;2022-12-07T00:28:59;23.10;99.90
20795;DHT22;28087;-33.874;151.240;2022-12-07T00:31:37;23.20;99.90
20795;DHT22;28087;-33.874;151.240;2022-12-07T00:42:24;23.20;99.90
20795;DHT22;28087;-33.874;151.240;2022-12-07T00:45:03;23.40;99.90
20795;DHT22;28087;-33.874;151.240;2022-12-07T00:47:42;23.60;99.90
20795;DHT22;28087;-33.874;151.240;2022-12-07T00:50:19;23.60;99.90
20795;DHT22;28087;-33.874;151.240;2022-12-07T00:52:59;23.60;99.90
20795;DHT22;28087;-33.874;151.240;2022-12-07T00:55:35;23.70;99.90
20795;DHT22;28087;-33.874;151.240;2022-12-07T00:58:15;23.80;99.90
20795;DHT22;28087;-33.874;151.240;2022-12-07T01:03:31;23.30;99.90
20795;DHT22;28087;-33.874;151.240;2022-12-07T01:06:07;23.50;99.90
20795;DHT22;28087;-33.874;151.240;2022-12-07T01:08:46;23.40;99.90
20795;DHT22;28087;-33.874;151.240;2022-12-07T01:11:24;23.40;99.90
20795;DHT22;28087;-33.874;151.240;2022-12-07T01:14:05;23.30;99.90
20795;DHT22;28087;-33.874;151.240;2022-12-07T01:16:44;23.30;99.90
20795;DHT22;28087;-33.874;151.240;2022-12-07T01:19:20;23.20;99.90
20795;DHT22;28087;-33.874;151.240;2022-12-07T01:24:33;23.30;99.90
20795;DHT22;28087;-33.874;151.240;2022-12-07T01:27:09;23.30;99.90
20795;DHT22;28087;-33.874;151.240;2022-12-07T01:29:45;23.40;99.90
20795;DHT22;28087;-33.874;151.240;2022-12-07T01:35:05;23.30;99.90
20795;DHT22;28087;-33.874;151.240;2022-12-07T01:37:41;23.30;99.90
20795;DHT22;28087;-33.874;151.240;2022-12-07T01:40:17;23.30;99.90
20795;DHT22;28087;-33.874;151.240;2022-12-07T01:42:53;23.30;99.90
20795;DHT22;28087;-33.874;151.240;2022-12-07T01:45:39;23.40;99.90
20795;DHT22;28087;-33.874;151.240;2022-12-07T01:48:19;23.30;99.90
20795;DHT22;28087;-33.874;151.240;2022-12-07T01:50:59;23.30;99.90
20795;DHT22;28087;-33.874;151.240;2022-12-07T01:53:38;23.20;99.90
20795;DHT22;28087;-33.874;151.240;2022-12-07T02:57:42;23.00;99.90
20795;DHT22;28087;-33.874;151.240;2022-12-07T03:00:23;23.00;99.90
20795;DHT22;28087;-33.874;151.240;2022-12-07T03:03:06;22.80;99.90
20795;DHT22;28087;-33.874;151.240;2022-12-07T03:06:08;22.80;99.90
20795;DHT22;28087;-33.874;151.240;2022-12-07T03:08:52;22.80;99.90
20795;DHT22;28087;-33.874;151.240;2022-12-07T03:11:37;22.80;99.90
20795;DHT22;28087;-33.874;151.240;2022-12-07T03:14:20;22.90;99.90
20795;DHT22;28087;-33.874;151.240;2022-12-07T03:17:04;22.90;99.90
20795;DHT22;28087;-33.874;151.240;2022-12-07T03:19:46;22.90;99.90
20795;DHT22;28087;-33.874;151.240;2022-12-07T03:22:24;22.90;99.90
20795;DHT22;28087;-33.874;151.240;2022-12-07T03:25:06;23.00;99.90
20795;DHT22;28087;-33.874;151.240;2022-12-07T03:27:46;23.10;99.90
20795;DHT22;28087;-33.874;151.240;2022-12-07T03:30:29;23.10;99.90
20795;DHT22;28087;-33.874;151.240;2022-12-07T03:33:21;23.10;99.90
20795;DHT22;28087;-33.874;151.240;2022-12-07T03:36:04;23.10;99.90
20795;DHT22;28087;-33.874;151.240;2022-12-07T03:38:44;23.10;99.90
20795;DHT22;28087;-33.874;151.240;2022-12-07T03:41:23;23.10;99.90
20795;DHT22;28087;-33.874;151.240;2022-12-07T03:44:01;23.10;99.90
20795;DHT22;28087;-33.874;151.240;2022-12-07T03:46:46;23.10;99.90
20795;DHT22;28087;-33.874;151.240;2022-12-07T03:49:30;23.10;99.90
20795;DHT22;28087;-33.874;151.240;2022-12-07T03:52:18;23.10;99.90
20795;DHT22;28087;-33.874;151.240;2022-12-07T03:54:59;23.10;99.90
20795;DHT22;28087;-33.874;151.240;2022-12-07T03:57:36;23.10;99.90
20795;DHT22;28087;-33.874;151.240;2022-12-07T04:00:17;23.20;99.90
20795;DHT22;28087;-33.874;151.240;2022-12-07T04:02:54;23.20;99.90
20795;DHT22;28087;-33.874;151.240;2022-12-07T04:05:32;23.20;99.90
20795;DHT22;28087;-33.874;151.240;2022-12-07T04:08:11;23.20;99.90
20795;DHT22;28087;-33.874;151.240;2022-12-07T04:10:46;23.30;99.90
20795;DHT22;28087;-33.874;151.240;2022-12-07T04:13:23;23.20;99.90
20795;DHT22;28087;-33.874;151.240;2022-12-07T04:16:00;23.20;99.90
20795;DHT22;28087;-33.874;151.240;2022-12-07T04:18:38;23.20;99.90
20795;DHT22;28087;-33.874;151.240;2022-12-07T04:21:14;23.20;99.90
20795;DHT22;28087;-33.874;151.240;2022-12-07T04:23:52;23.10;99.90
20795;DHT22;28087;-33.874;151.240;2022-12-07T04:26:28;23.10;99.90
20795;DHT22;28087;-33.874;151.240;2022-12-07T04:29:05;23.20;99.90
20795;DHT22;28087;-33.874;151.240;2022-12-07T04:31:41;23.20;99.90
20795;DHT22;28087;-33.874;151.240;2022-12-07T04:34:17;23.20;99.90
20795;DHT22;28087;-33.874;151.240;2022-12-07T04:36:55;23.20;99.90
20795;DHT22;28087;-33.874;151.240;2022-12-07T04:39:33;23.20;99.90
20795;DHT22;28087;-33.874;151.240;2022-12-07T04:42:09;23.20;99.90
20795;DHT22;28087;-33.874;151.240;2022-12-07T04:44:45;23.20;99.90
20795;DHT22;28087;-33.874;151.240;2022-12-07T04:47:24;23.30;99.90
20795;DHT22;28087;-33.874;151.240;2022-12-07T04:50:01;23.30;99.90
20795;DHT22;28087;-33.874;151.240;2022-12-07T04:52:38;23.30;99.90
20795;DHT22;28087;-33.874;151.240;2022-12-07T04:55:17;23.40;99.90
20795;DHT22;28087;-33.874;151.240;2022-12-07T04:57:55;23.40;99.90
20795;DHT22;28087;-33.874;151.240;2022-12-07T05:00:31;23.40;99.90
20795;DHT22;28087;-33.874;151.240;2022-12-07T05:03:07;23.40;99.90
20795;DHT22;28087;-33.874;151.240;2022-12-07T05:05:42;23.50;99.90
20795;DHT22;28087;-33.874;151.240;2022-12-07T05:08:20;23.50;99.90
20795;DHT22;28087;-33.874;151.240;2022-12-07T05:10:59;23.60;99.90
20795;DHT22;28087;-33.874;151.240;2022-12-07T05:13:35;23.60;99.90
20795;DHT22;28087;-33.874;151.240;2022-12-07T05:16:10;23.60;99.90
20795;DHT22;28087;-33.874;151.240;2022-12-07T05:18:48;23.70;99.90
20795;DHT22;28087;-33.874;151.240;2022-12-07T05:21:24;23.70;99.90
20795;DHT22;28087;-33.874;151.240;2022-12-07T05:24:01;23.60;99.90
20795;DHT22;28087;-33.874;151.240;2022-12-07T05:26:43;23.60;99.90
20795;DHT22;28087;-33.874;151.240;2022-12-07T05:29:20;23.70;99.90
20795;DHT22;28087;-33.874;151.240;2022-12-07T05:31:56;23.70;99.90
20795;DHT22;28087;-33.874;151.240;2022-12-07T05:34:33;23.70;99.90
20795;DHT22;28087;-33.874;151.240;2022-12-07T05:37:10;23.70;99.90
20795;DHT22;28087;-33.874;151.240;2022-12-07T05:39:48;23.60;99.90
20795;DHT22;28087;-33.874;151.240;2022-12-07T05:42:25;23.60;99.90
20795;DHT22;28087;-33.874;151.240;2022-12-07T05:45:05;23.70;99.90
20795;DHT22;28087;-33.874;151.240;2022-12-07T05:47:42;23.70;99.90
20795;DHT22;28087;-33.874;151.240;2022-12-07T05:50:19;23.70;99.90
20795;DHT22;28087;-33.874;151.240;2022-12-07T05:53:02;23.80;99.90
20795;DHT22;28087;-33.874;151.240;2022-12-07T05:55:39;23.80;99.90
20795;DHT22;28087;-33.874;151.240;2022-12-07T05:58:17;23.80;99.90
20795;DHT22;28087;-33.874;151.240;2022-12-07T06:01:10;23.80;99.90
20795;DHT22;28087;-33.874;151.240;2022-12-07T06:03:46;23.80;99.90
20795;DHT22;28087;-33.874;151.240;2022-12-07T06:06:22;23.90;99.90
20795;DHT22;28087;-33.874;151.240;2022-12-07T06:08:59;23.90;99.90
20795;DHT22;28087;-33.874;151.240;2022-12-07T06:11:36;23.90;99.90
20795;DHT22;28087;-33.874;151.240;2022-12-07T06:14:30;23.90;99.90
20795;DHT22;28087;-33.874;151.240;2022-12-07T06:17:06;24.00;99.90
20795;DHT22;28087;-33.874;151.240;2022-12-07T06:19:42;24.00;99.90
20795;DHT22;28087;-33.874;151.240;2022-12-07T06:22:20;24.00;99.90
20795;DHT22;28087;-33.874;151.240;2022-12-07T06:24:56;23.90;99.90
20795;DHT22;28087;-33.874;151.240;2022-12-07T06:27:39;23.90;99.90
20795;DHT22;28087;-33.874;151.240;2022-12-07T06:30:17;23.80;99.90
20795;DHT22;28087;-33.874;151.240;2022-12-07T06:32:54;23.80;99.90
20795;DHT22;28087;-33.874;151.240;2022-12-07T06:35:32;23.80;99.90
20795;DHT22;28087;-33.874;151.240;2022-12-07T06:38:08;23.80;99.90
20795;DHT22;28087;-33.874;151.240;2022-12-07T06:40:45;23.80;99.90
20795;DHT22;28087;-33.874;151.240;2022-12-07T06:43:23;23.80;99.90
20795;DHT22;28087;-33.874;151.240;2022-12-07T06:46:01;23.80;99.90
20795;DHT22;28087;-33.874;151.240;2022-12-07T06:48:37;23.80;99.90
20795;DHT22;28087;-33.874;151.240;2022-12-07T06:51:13;23.80;99.90
20795;DHT22;28087;-33.874;151.240;2022-12-07T06:53:50;23.80;99.90
20795;DHT22;28087;-33.874;151.240;2022-12-07T06:56:27;23.80;99.90
20795;DHT22;28087;-33.874;151.240;2022-12-07T06:59:05;23.80;99.90
20795;DHT22;28087;-33.874;151.240;2022-12-07T07:01:44;23.80;99.90
20795;DHT22;28087;-33.874;151.240;2022-12-07T07:04:22;23.80;99.90
20795;DHT22;28087;-33.874;151.240;2022-12-07T07:06:59;23.80;99.90
20795;DHT22;28087;-33.874;151.240;2022-12-07T07:09:35;23.80;99.90
20795;DHT22;28087;-33.874;151.240;2022-12-07T07:12:12;23.80;99.90
20795;DHT22;28087;-33.874;151.240;2022-12-07T07:14:51;23.80;99.90
20795;DHT22;28087;-33.874;151.240;2022-12-07T07:17:30;23.80;99.90
20795;DHT22;28087;-33.874;151.240;2022-12-07T07:20:07;23.70;99.90
20795;DHT22;28087;-33.874;151.240;2022-12-07T07:22:43;23.80;99.90
20795;DHT22;28087;-33.874;151.240;2022-12-07T07:25:20;23.70;99.90
20795;DHT22;28087;-33.874;151.240;2022-12-07T07:27:57;23.70;99.90
20795;DHT22;28087;-33.874;151.240;2022-12-07T07:30:36;23.70;99.90
20795;DHT22;28087;-33.874;151.240;2022-12-07T07:33:16;23.70;99.90
20795;DHT22;28087;-33.874;151.240;2022-12-07T07:35:53;23.70;99.90
20795;DHT22;28087;-33.874;151.240;2022-12-07T07:38:28;23.70;99.90
20795;DHT22;28087;-33.874;151.240;2022-12-07T07:41:05;23.70;99.90
20795;DHT22;28087;-33.874;151.240;2022-12-07T07:43:41;23.60;99.90
20795;DHT22;28087;-33.874;151.240;2022-12-07T07:46:19;23.70;99.90
20795;DHT22;28087;-33.874;151.240;2022-12-07T07:48:58;23.60;99.90
20795;DHT22;28087;-33.874;151.240;2022-12-07T07:51:34;23.60;99.90
20795;DHT22;28087;-33.874;151.240;2022-12-07T07:54:10;23.60;99.90
20795;DHT22;28087;-33.874;151.240;2022-12-07T07:56:47;23.60;99.90
20795;DHT22;28087;-33.874;151.240;2022-12-07T07:59:24;23.60;99.90
20795;DHT22;28087;-33.874;151.240;2022-12-07T08:02:00;23.60;99.90
20795;DHT22;28087;-33.874;151.240;2022-12-07T08:04:39;23.60;99.90
20795;DHT22;28087;-33.874;151.240;2022-12-07T08:07:17;23.60;99.90
20795;DHT22;28087;-33.874;151.240;2022-12-07T08:09:53;23.60;99.90
20795;DHT22;28087;-33.874;151.240;2022-12-07T08:12:29;23.80;99.90
20795;DHT22;28087;-33.874;151.240;2022-12-07T08:15:06;23.60;99.90
20795;DHT22;28087;-33.874;151.240;2022-12-07T08:17:44;23.50;99.90
20795;DHT22;28087;-33.874;151.240;2022-12-07T08:20:23;23.50;99.90
20795;DHT22;28087;-33.874;151.240;2022-12-07T08:22:59;23.50;99.90
20795;DHT22;28087;-33.874;151.240;2022-12-07T08:25:36;23.50;99.90
20795;DHT22;28087;-33.874;151.240;2022-12-07T08:28:13;23.50;99.90
20795;DHT22;28087;-33.874;151.240;2022-12-07T08:30:49;23.40;99.90
20795;DHT22;28087;-33.874;151.240;2022-12-07T08:33:26;23.40;99.90
20795;DHT22;28087;-33.874;151.240;2022-12-07T08:36:06;23.40;99.90
20795;DHT22;28087;-33.874;151.240;2022-12-07T08:38:43;23.40;99.90
20795;DHT22;28087;-33.874;151.240;2022-12-07T08:44:14;23.50;99.90
20795;DHT22;28087;-33.874;151.240;2022-12-07T08:46:53;23.40;99.90
20795;DHT22;28087;-33.874;151.240;2022-12-07T08:49:35;23.40;99.90
20795;DHT22;28087;-33.874;151.240;2022-12-07T08:52:14;23.40;99.90
20795;DHT22;28087;-33.874;151.240;2022-12-07T08:54:51;23.40;99.90
20795;DHT22;28087;-33.874;151.240;2022-12-07T08:57:28;23.40;99.90
20795;DHT22;28087;-33.874;151.240;2022-12-07T09:00:06;23.40;99.90
20795;DHT22;28087;-33.874;151.240;2022-12-07T09:02:44;23.40;99.90
20795;DHT22;28087;-33.874;151.240;2022-12-07T09:05:21;23.40;99.90
20795;DHT22;28087;-33.874;151.240;2022-12-07T09:08:01;23.40;99.90
20795;DHT22;28087;-33.874;151.240;2022-12-07T09:10:39;23.40;99.90
20795;DHT22;28087;-33.874;151.240;2022-12-07T09:13:16;23.40;99.90
20795;DHT22;28087;-33.874;151.240;2022-12-07T09:15:55;23.40;99.90
20795;DHT22;28087;-33.874;151.240;2022-12-07T09:18:32;23.40;99.90
20795;DHT22;28087;-33.874;151.240;2022-12-07T09:21:09;23.40;99.90
20795;DHT22;28087;-33.874;151.240;2022-12-07T09:23:47;23.30;99.90
20795;DHT22;28087;-33.874;151.240;2022-12-07T09:26:24;23.30;99.90
20795;DHT22;28087;-33.874;151.240;2022-12-07T09:29:00;23.30;99.90
20795;DHT22;28087;-33.874;151.240;2022-12-07T09:31:37;23.30;99.90
20795;DHT22;28087;-33.874;151.240;2022-12-07T09:34:24;23.30;99.90
20795;DHT22;28087;-33.874;151.240;2022-12-07T09:37:02;23.30;99.90
20795;DHT22;28087;-33.874;151.240;2022-12-07T09:39:41;23.30;99.90
20795;DHT22;28087;-33.874;151.240;2022-12-07T09:42:28;23.30;99.90
20795;DHT22;28087;-33.874;151.240;2022-12-07T09:45:10;23.20;99.90
20795;DHT22;28087;-33.874;151.240;2022-12-07T09:47:47;23.20;99.90
20795;DHT22;28087;-33.874;151.240;2022-12-07T09:50:25;23.20;99.90
20795;DHT22;28087;-33.874;151.240;2022-12-07T09:53:08;23.20;99.90
20795;DHT22;28087;-33.874;151.240;2022-12-07T09:55:49;23.20;99.90
20795;DHT22;28087;-33.874;151.240;2022-12-07T09:58:28;23.10;99.90
20795;DHT22;28087;-33.874;151.240;2022-12-07T10:01:16;23.10;99.90
20795;DHT22;28087;-33.874;151.240;2022-12-07T10:03:54;23.10;99.90
20795;DHT22;28087;-33.874;151.240;2022-12-07T10:06:31;23.10;99.90
20795;DHT22;28087;-33.874;151.240;2022-12-07T10:09:11;23.10;99.90
20795;DHT22;28087;-33.874;151.240;2022-12-07T10:12:03;23.10;99.90
20795;DHT22;28087;-33.874;151.240;2022-12-07T10:14:53;23.10;99.90
20795;DHT22;28087;-33.874;151.240;2022-12-07T10:17:38;23.10;99.90
20795;DHT22;28087;-33.874;151.240;2022-12-07T10:20:20;23.10;99.90
20795;DHT22;28087;-33.874;151.240;2022-12-07T10:22:59;23.10;99.90
20795;DHT22;28087;-33.874;151.240;2022-12-07T10:25:38;23.10;99.90
20795;DHT22;28087;-33.874;151.240;2022-12-07T10:28:17;23.10;99.90
20795;DHT22;28087;-33.874;151.240;2022-12-07T10:30:57;23.00;99.90
20795;DHT22;28087;-33.874;151.240;2022-12-07T10:33:38;23.00;99.90
20795;DHT22;28087;-33.874;151.240;2022-12-07T10:39:13;23.00;99.90
20795;DHT22;28087;-33.874;151.240;2022-12-07T10:42:15;23.00;99.90
20795;DHT22;28087;-33.874;151.240;2022-12-07T10:45:17;22.90;99.90
20795;DHT22;28087;-33.874;151.240;2022-12-07T10:48:06;22.90;99.90
20795;DHT22;28087;-33.874;151.240;2022-12-07T10:51:20;22.90;99.90
20795;DHT22;28087;-33.874;151.240;2022-12-07T10:54:15;22.90;99.90
20795;DHT22;28087;-33.874;151.240;2022-12-07T10:57:35;22.90;99.90
20795;DHT22;28087;-33.874;151.240;2022-12-07T11:00:50;22.90;99.90
20795;DHT22;28087;-33.874;151.240;2022-12-07T11:04:14;22.80;99.90
20795;DHT22;28087;-33.874;151.240;2022-12-07T11:07:05;22.80;99.90
20795;DHT22;28087;-33.874;151.240;2022-12-07T11:09:54;22.80;99.90
20795;DHT22;28087;-33.874;151.240;2022-12-07T11:13:31;22.80;99.90
20795;DHT22;28087;-33.874;151.240;2022-12-07T11:16:43;22.80;99.90
20795;DHT22;28087;-33.874;151.240;2022-12-07T11:19:42;22.80;99.90
20795;DHT22;28087;-33.874;151.240;2022-12-07T11:22:43;22.80;99.90
20795;DHT22;28087;-33.874;151.240;2022-12-07T11:25:34;22.80;99.90
20795;DHT22;28087;-33.874;151.240;2022-12-07T11:28:28;22.80;99.90
20795;DHT22;28087;-33.874;151.240;2022-12-07T11:31:41;22.80;99.90
20795;DHT22;28087;-33.874;151.240;2022-12-07T11:34:37;22.80;99.90
20795;DHT22;28087;-33.874;151.240;2022-12-07T11:40:41;22.70;99.90
20795;DHT22;28087;-33.874;151.240;2022-12-07T11:43:24;22.70;99.90
20795;DHT22;28087;-33.874;151.240;2022-12-07T11:46:05;22.70;99.90
20795;DHT22;28087;-33.874;151.240;2022-12-07T11:48:49;22.70;99.90
20795;DHT22;28087;-33.874;151.240;2022-12-07T11:51:27;22.70;99.90
20795;DHT22;28087;-33.874;151.240;2022-12-07T11:54:14;22.70;99.90
20795;DHT22;28087;-33.874;151.240;2022-12-07T11:56:52;22.70;99.90
20795;DHT22;28087;-33.874;151.240;2022-12-07T11:59:33;22.70;99.90
20795;DHT22;28087;-33.874;151.240;2022-12-07T12:02:15;22.70;99.90
20795;DHT22;28087;-33.874;151.240;2022-12-07T12:04:58;22.70;99.90
20795;DHT22;28087;-33.874;151.240;2022-12-07T12:07:35;22.70;99.90
20795;DHT22;28087;-33.874;151.240;2022-12-07T12:10:43;22.70;99.90
20795;DHT22;28087;-33.874;151.240;2022-12-07T12:14:02;22.70;99.90
20795;DHT22;28087;-33.874;151.240;2022-12-07T12:17:19;22.70;99.90
20795;DHT22;28087;-33.874;151.240;2022-12-07T12:20:06;22.70;99.90
20795;DHT22;28087;-33.874;151.240;2022-12-07T12:22:45;22.70;99.90
20795;DHT22;28087;-33.874;151.240;2022-12-07T12:25:24;22.60;99.90
20795;DHT22;28087;-33.874;151.240;2022-12-07T12:28:01;22.60;99.90
20795;DHT22;28087;-33.874;151.240;2022-12-07T12:30:39;22.60;99.90
20795;DHT22;28087;-33.874;151.240;2022-12-07T12:33:22;22.50;99.90
20795;DHT22;28087;-33.874;151.240;2022-12-07T12:39:13;22.60;99.90
20795;DHT22;28087;-33.874;151.240;2022-12-07T12:42:18;22.60;99.90
20795;DHT22;28087;-33.874;151.240;2022-12-07T12:45:21;22.60;99.90
20795;DHT22;28087;-33.874;151.240;2022-12-07T12:47:58;23.70;99.90
20795;DHT22;28087;-33.874;151.240;2022-12-07T21:19:08;22.20;99.90
20795;DHT22;28087;-33.874;151.240;2022-12-07T21:21:47;22.30;99.90
20795;DHT22;28087;-33.874;151.240;2022-12-07T21:24:23;22.30;99.90
20795;DHT22;28087;-33.874;151.240;2022-12-07T21:26:59;22.40;99.90
20795;DHT22;28087;-33.874;151.240;2022-12-07T21:29:37;22.40;99.90
20795;DHT22;28087;-33.874;151.240;2022-12-07T21:32:14;22.50;99.90
20795;DHT22;28087;-33.874;151.240;2022-12-07T21:34:50;22.50;99.90
20795;DHT22;28087;-33.874;151.240;2022-12-07T21:48:03;22.80;99.90
20795;DHT22;28087;-33.874;151.240;2022-12-07T21:50:40;22.90;99.90
20795;DHT22;28087;-33.874;151.240;2022-12-07T21:53:18;22.90;99.90
20795;DHT22;28087;-33.874;151.240;2022-12-07T21:55:54;23.00;99.90
20795;DHT22;28087;-33.874;151.240;2022-12-07T21:58:30;23.10;99.90
20795;DHT22;28087;-33.874;151.240;2022-12-07T22:01:12;23.10;99.90
20795;DHT22;28087;-33.874;151.240;2022-12-07T22:14:21;23.30;99.90
20795;DHT22;28087;-33.874;151.240;2022-12-07T22:32:55;23.50;99.90
20795;DHT22;28087;-33.874;151.240;2022-12-07T22:35:32;23.60;99.90
20795;DHT22;28087;-33.874;151.240;2022-12-07T22:38:08;23.60;99.90
20795;DHT22;28087;-33.874;151.240;2022-12-07T22:48:35;23.00;99.90
20795;DHT22;28087;-33.874;151.240;2022-12-07T22:51:20;22.90;99.90
20795;DHT22;28087;-33.874;151.240;2022-12-07T22:53:57;22.90;99.90
20795;DHT22;28087;-33.874;151.240;2022-12-07T22:56:37;22.80;99.90
20795;DHT22;28087;-33.874;151.240;2022-12-07T22:59:14;22.70;99.90
20795;DHT22;28087;-33.874;151.240;2022-12-07T23:01:50;22.60;99.90
20795;DHT22;28087;-33.874;151.240;2022-12-07T23:04:27;22.60;99.90
20795;DHT22;28087;-33.874;151.240;2022-12-07T23:07:04;22.60;99.90
20795;DHT22;28087;-33.874;151.240;2022-12-07T23:09:40;22.40;99.90
20795;DHT22;28087;-33.874;151.240;2022-12-07T23:12:17;22.30;99.90
20795;DHT22;28087;-33.874;151.240;2022-12-07T23:15:10;22.10;99.90
20795;DHT22;28087;-33.874;151.240;2022-12-07T23:17:47;22.00;99.90
20795;DHT22;28087;-33.874;151.240;2022-12-07T23:20:23;22.10;99.90
20795;DHT22;28087;-33.874;151.240;2022-12-07T23:22:59;22.10;99.90
20795;DHT22;28087;-33.874;151.240;2022-12-07T23:25:35;22.00;99.90
20795;DHT22;28087;-33.874;151.240;2022-12-07T23:28:14;21.80;99.90
20795;DHT22;28087;-33.874;151.240;2022-12-07T23:30:50;21.70;99.90
20795;DHT22;28087;-33.874;151.240;2022-12-07T23:33:27;21.80;99.90
20795;DHT22;28087;-33.874;151.240;2022-12-07T23:36:12;21.80;99.90
20795;DHT22;28087;-33.874;151.240;2022-12-07T23:38:50;21.80;99.90
20795;DHT22;28087;-33.874;151.240;2022-12-07T23:41:27;21.80;99.90
20795;DHT22;28087;-33.874;151.240;2022-12-07T23:44:06;21.70;99.90
20795;DHT22;28087;-33.874;151.240;2022-12-07T23:46:43;21.90;99.90
20795;DHT22;28087;-33.874;151.240;2022-12-07T23:49:19;21.90;99.90
20795;DHT22;28087;-33.874;151.240;2022-12-07T23:51:56;22.00;99.90
20795;DHT22;28087;-33.874;151.240;2022-12-07T23:54:32;21.90;99.90
20795;DHT22;28087;-33.874;151.240;2022-12-07T23:57:08;21.90;99.90
20795;DHT22;28087;-33.874;151.240;2022-12-07T23:59:46;21.90;99.90
